Sisseton, SD

7:28 PM CDT on September 04, 2015 (GMT -0500)
W Browns Valley Twp | | Change Station
CLOSE
Current Station
Personal Weather Station
Location: Beardsley, MN
Elevation: 1089 ft
Nearby Weather Stations

Elev 1089 ft 45.56 °N, 96.74 °W | Updated 12 seconds ago

Clear
Clear
80.2 °F
Feels Like 84 °F
N
2.0
Wind Variable Wind from South
Gusts 2.5 mph

Today
High -- | Low -- °F
--% Chance of Precip.
Yesterday
High -- | Low -- °F
Precip. -- in
6:52 AM 8:00 PM
Waning Gibbous, 54% visible
Pressure 29.83 in
Visibility 10.0 miles
Clouds Clear
Heat Index 84 °F
Dew Point 70 °F
Humidity 72%
Rainfall 0.00 in
Snow Depth Not available.
UV 0 out of 12
Pollen 11.00 out of 12
Air Quality Not available.
Flu Activity Not available.
METAR KETH 050015Z AUTO 13009G16KT 10SM CLR 26/21 A2983 RMK AO2 LTG DSNT N
Pressure 29.83 in
Visibility 10.0 miles
Clouds Clear
Heat Index 84 °F
Dew Point 70 °F
Humidity 72%
Rainfall 0.00 in
Snow Depth Not available.
UV 0 out of 12
Pollen 11.00 out of 12
Air Quality Not available.
Flu Activity Not available.
METAR KETH 050015Z AUTO 13009G16KT 10SM CLR 26/21 A2983 RMK AO2 LTG DSNT N

10-Day Weather Forecast

×

Almanac

Astronomy

Sep. 04, 2015 Rise Set
Actual Time
Civil Twilight
Nautical Twilight
Astronomical Twilight
Moon
Length of Visible Light
Length of Day
Tomorrow will be .
, % of the Moon is Illuminated

Today's Extremes

State Highs State Lows

Community

WunderPhotos

Upload Photos

1,852,351 photos uploaded!

WunderBlogs® & News

Nearby

Air Quality

  Air Quality AQ Index Pollutant
Not available.

Snow Depth

Station Depth Elevation

Earthquake Activity

City Distance Mag. Time & Date
Minimum magnitude displayed is 2.5.

Coastal Water Temperatures

Place Temperature

Stations

Nearby Weather Stations

Station Location Temp. Windchill Dew Point Humidity Wind Precip. Elev Updated Type